sensor_id;sensor_type;location;lat;lon;timestamp;pressure;altitude;pressure_sealevel;temperature;humidity
37200;BME280;23096;50.892;16.746;2023-01-26T00:01:16;99986.39;;;0.73;81.73
37200;BME280;23096;50.892;16.746;2023-01-26T00:03:42;99986.98;;;0.70;81.62
37200;BME280;23096;50.892;16.746;2023-01-26T00:06:10;99985.92;;;0.67;81.71
37200;BME280;23096;50.892;16.746;2023-01-26T00:08:36;99984.20;;;0.66;81.65
37200;BME280;23096;50.892;16.746;2023-01-26T00:11:03;99975.38;;;0.64;81.70
37200;BME280;23096;50.892;16.746;2023-01-26T00:13:29;99972.94;;;0.61;81.74
37200;BME280;23096;50.892;16.746;2023-01-26T00:15:55;99974.27;;;0.60;81.76
37200;BME280;23096;50.892;16.746;2023-01-26T00:18:21;99971.21;;;0.59;81.83
37200;BME280;23096;50.892;16.746;2023-01-26T00:20:47;99967.30;;;0.57;81.77
37200;BME280;23096;50.892;16.746;2023-01-26T00:23:14;99965.60;;;0.58;81.80
37200;BME280;23096;50.892;16.746;2023-01-26T00:25:40;99968.70;;;0.60;81.92
37200;BME280;23096;50.892;16.746;2023-01-26T00:28:06;99969.60;;;0.63;81.82
37200;BME280;23096;50.892;16.746;2023-01-26T00:30:33;99969.30;;;0.64;81.78
37200;BME280;23096;50.892;16.746;2023-01-26T00:32:59;99967.46;;;0.66;81.85
37200;BME280;23096;50.892;16.746;2023-01-26T00:35:25;99963.23;;;0.66;81.89
37200;BME280;23096;50.892;16.746;2023-01-26T00:37:51;99962.64;;;0.69;81.92
37200;BME280;23096;50.892;16.746;2023-01-26T00:40:17;99957.60;;;0.72;81.88
37200;BME280;23096;50.892;16.746;2023-01-26T00:42:43;99961.76;;;0.77;82.01
37200;BME280;23096;50.892;16.746;2023-01-26T00:45:12;99958.91;;;0.79;81.82
37200;BME280;23096;50.892;16.746;2023-01-26T00:47:38;99959.56;;;0.78;81.83
37200;BME280;23096;50.892;16.746;2023-01-26T00:50:04;99959.39;;;0.77;81.88
37200;BME280;23096;50.892;16.746;2023-01-26T00:52:30;99959.02;;;0.75;81.95
37200;BME280;23096;50.892;16.746;2023-01-26T00:54:56;99962.89;;;0.74;81.91
37200;BME280;23096;50.892;16.746;2023-01-26T00:57:22;99959.66;;;0.73;81.93
37200;BME280;23096;50.892;16.746;2023-01-26T00:59:48;99957.60;;;0.72;81.88
37200;BME280;23096;50.892;16.746;2023-01-26T01:02:15;99960.10;;;0.70;81.92
37200;BME280;23096;50.892;16.746;2023-01-26T01:04:41;99960.04;;;0.67;81.82
37200;BME280;23096;50.892;16.746;2023-01-26T01:07:07;99958.65;;;0.65;81.91
37200;BME280;23096;50.892;16.746;2023-01-26T01:09:33;99954.58;;;0.64;81.90
37200;BME280;23096;50.892;16.746;2023-01-26T01:11:59;99958.14;;;0.64;81.95
37200;BME280;23096;50.892;16.746;2023-01-26T01:14:26;99958.42;;;0.62;81.77
37200;BME280;23096;50.892;16.746;2023-01-26T01:16:52;99959.05;;;0.60;81.85
37200;BME280;23096;50.892;16.746;2023-01-26T01:19:18;99955.48;;;0.60;81.92
37200;BME280;23096;50.892;16.746;2023-01-26T01:21:44;99956.84;;;0.58;81.92
37200;BME280;23096;50.892;16.746;2023-01-26T01:24:11;99955.98;;;0.57;81.77
37200;BME280;23096;50.892;16.746;2023-01-26T01:26:37;99954.77;;;0.57;81.96
37200;BME280;23096;50.892;16.746;2023-01-26T01:29:04;99952.75;;;0.57;82.02
37200;BME280;23096;50.892;16.746;2023-01-26T01:31:30;99954.65;;;0.60;81.93
37200;BME280;23096;50.892;16.746;2023-01-26T01:33:56;99952.45;;;0.60;81.95
37200;BME280;23096;50.892;16.746;2023-01-26T01:36:22;99949.57;;;0.59;82.00
37200;BME280;23096;50.892;16.746;2023-01-26T01:38:50;99945.86;;;0.59;82.01
37200;BME280;23096;50.892;16.746;2023-01-26T01:41:18;99949.45;;;0.62;82.03
37200;BME280;23096;50.892;16.746;2023-01-26T01:43:44;99945.39;;;0.62;82.04
37200;BME280;23096;50.892;16.746;2023-01-26T01:46:16;99944.88;;;0.62;82.08
37200;BME280;23096;50.892;16.746;2023-01-26T01:51:20;99943.41;;;0.64;82.00
37200;BME280;23096;50.892;16.746;2023-01-26T01:53:49;99940.89;;;0.65;82.00
37200;BME280;23096;50.892;16.746;2023-01-26T01:56:18;99938.17;;;0.65;82.00
37200;BME280;23096;50.892;16.746;2023-01-26T01:58:47;99936.83;;;0.65;82.03
37200;BME280;23096;50.892;16.746;2023-01-26T02:01:17;99928.73;;;0.66;82.07
37200;BME280;23096;50.892;16.746;2023-01-26T02:03:43;99927.39;;;0.66;82.00
37200;BME280;23096;50.892;16.746;2023-01-26T02:06:12;99924.01;;;0.66;82.02
37200;BME280;23096;50.892;16.746;2023-01-26T02:08:39;99922.14;;;0.66;81.98
37200;BME280;23096;50.892;16.746;2023-01-26T02:11:13;99918.94;;;0.67;82.01
37200;BME280;23096;50.892;16.746;2023-01-26T02:13:41;99910.94;;;0.64;81.86
37200;BME280;23096;50.892;16.746;2023-01-26T02:16:08;99908.09;;;0.66;82.08
37200;BME280;23096;50.892;16.746;2023-01-26T02:18:34;99907.64;;;0.68;82.10
37200;BME280;23096;50.892;16.746;2023-01-26T02:21:01;99905.84;;;0.71;82.08
37200;BME280;23096;50.892;16.746;2023-01-26T02:28:25;99893.79;;;0.79;82.20
37200;BME280;23096;50.892;16.746;2023-01-26T02:30:51;99885.05;;;0.81;82.17
37200;BME280;23096;50.892;16.746;2023-01-26T02:33:18;99884.07;;;0.84;82.06
37200;BME280;23096;50.892;16.746;2023-01-26T02:35:44;99877.51;;;0.85;82.09
37200;BME280;23096;50.892;16.746;2023-01-26T05:07:07;99759.77;;;0.86;81.99
37200;BME280;23096;50.892;16.746;2023-01-26T05:09:33;99760.10;;;0.74;81.80
37200;BME280;23096;50.892;16.746;2023-01-26T05:12:34;99755.46;;;0.70;81.94
37200;BME280;23096;50.892;16.746;2023-01-26T05:15:19;99753.09;;;0.69;81.92
37200;BME280;23096;50.892;16.746;2023-01-26T05:18:17;99752.36;;;0.65;81.98
37200;BME280;23096;50.892;16.746;2023-01-26T05:20:50;99751.48;;;0.64;82.04
37200;BME280;23096;50.892;16.746;2023-01-26T05:23:21;99749.30;;;0.65;82.19
37200;BME280;23096;50.892;16.746;2023-01-26T05:26:05;99747.23;;;0.63;82.05
37200;BME280;23096;50.892;16.746;2023-01-26T05:28:42;99746.36;;;0.62;82.03
37200;BME280;23096;50.892;16.746;2023-01-26T05:31:07;99747.20;;;0.62;81.99
37200;BME280;23096;50.892;16.746;2023-01-26T05:33:33;99747.42;;;0.63;82.10
37200;BME280;23096;50.892;16.746;2023-01-26T05:36:02;99747.42;;;0.64;82.11
37200;BME280;23096;50.892;16.746;2023-01-26T05:38:28;99746.38;;;0.62;82.06
37200;BME280;23096;50.892;16.746;2023-01-26T05:40:54;99747.89;;;0.62;82.05
37200;BME280;23096;50.892;16.746;2023-01-26T05:43:19;99746.99;;;0.58;82.05
37200;BME280;23096;50.892;16.746;2023-01-26T05:46:06;99746.65;;;0.58;82.09
37200;BME280;23096;50.892;16.746;2023-01-26T05:48:32;99745.96;;;0.57;82.02
37200;BME280;23096;50.892;16.746;2023-01-26T05:50:58;99747.63;;;0.56;82.13
37200;BME280;23096;50.892;16.746;2023-01-26T05:53:24;99746.59;;;0.54;82.01
37200;BME280;23096;50.892;16.746;2023-01-26T05:55:50;99745.20;;;0.52;82.18
37200;BME280;23096;50.892;16.746;2023-01-26T05:58:19;99741.48;;;0.51;82.04
37200;BME280;23096;50.892;16.746;2023-01-26T06:00:45;99741.61;;;0.50;82.01
37200;BME280;23096;50.892;16.746;2023-01-26T06:03:15;99738.91;;;0.50;82.05
37200;BME280;23096;50.892;16.746;2023-01-26T06:05:41;99733.09;;;0.46;82.00
37200;BME280;23096;50.892;16.746;2023-01-26T06:08:19;99734.27;;;0.44;81.92
37200;BME280;23096;50.892;16.746;2023-01-26T06:10:57;99736.10;;;0.44;81.93
37200;BME280;23096;50.892;16.746;2023-01-26T06:13:58;99732.23;;;0.45;81.98
37200;BME280;23096;50.892;16.746;2023-01-26T06:16:25;99731.24;;;0.46;82.10
37200;BME280;23096;50.892;16.746;2023-01-26T06:18:51;99727.56;;;0.48;82.06
37200;BME280;23096;50.892;16.746;2023-01-26T06:21:16;99726.23;;;0.49;82.00
37200;BME280;23096;50.892;16.746;2023-01-26T06:23:42;99725.23;;;0.50;81.97
37200;BME280;23096;50.892;16.746;2023-01-26T06:26:08;99723.86;;;0.50;82.00
37200;BME280;23096;50.892;16.746;2023-01-26T06:28:34;99722.70;;;0.51;81.88
37200;BME280;23096;50.892;16.746;2023-01-26T06:31:01;99718.45;;;0.50;81.92
37200;BME280;23096;50.892;16.746;2023-01-26T06:33:27;99717.08;;;0.48;81.81
37200;BME280;23096;50.892;16.746;2023-01-26T06:35:54;99722.30;;;0.48;81.80
37200;BME280;23096;50.892;16.746;2023-01-26T06:38:20;99725.67;;;0.47;81.95
37200;BME280;23096;50.892;16.746;2023-01-26T06:40:46;99728.03;;;0.46;81.83
37200;BME280;23096;50.892;16.746;2023-01-26T06:43:12;99730.23;;;0.46;81.94
37200;BME280;23096;50.892;16.746;2023-01-26T06:45:38;99723.33;;;0.48;82.04
37200;BME280;23096;50.892;16.746;2023-01-26T06:48:03;99727.78;;;0.51;82.07
37200;BME280;23096;50.892;16.746;2023-01-26T06:50:32;99729.50;;;0.53;82.00
37200;BME280;23096;50.892;16.746;2023-01-26T06:52:58;99732.53;;;0.53;81.92
37200;BME280;23096;50.892;16.746;2023-01-26T06:55:50;99738.11;;;0.52;81.76
